createdAt,value
2018-07-31T00:00:44.484Z,42.18
2018-07-31T00:01:44.443Z,41.78
2018-07-31T00:02:44.437Z,40.68
2018-07-31T00:03:47.217Z,40.78
2018-07-31T00:04:44.411Z,41.39
2018-07-31T00:05:44.397Z,41.29
2018-07-31T00:06:44.401Z,40.48
2018-07-31T00:07:45.208Z,41.09
2018-07-31T00:08:45.364Z,40.98
2018-07-31T00:09:44.363Z,40.68
2018-07-31T00:10:44.351Z,40.39
2018-07-31T00:11:44.340Z,40.68
2018-07-31T00:12:44.323Z,40.29
2018-07-31T00:13:44.341Z,40.68
2018-07-31T00:14:44.301Z,40.78
2018-07-31T00:15:44.286Z,40.88
2018-07-31T00:16:44.273Z,40.58
2018-07-31T00:17:45.629Z,40.98
2018-07-31T00:18:45.486Z,40.09
2018-07-31T00:19:47.022Z,40.48
2018-07-31T00:20:45.818Z,40.09
2018-07-31T00:21:46.180Z,40.29
2018-07-31T00:22:47.663Z,40.00
2018-07-31T00:23:45.470Z,40.19
2018-07-31T00:24:45.607Z,40.39
2018-07-31T00:25:46.118Z,40.68
2018-07-31T00:26:44.192Z,39.70
2018-07-31T00:27:45.562Z,40.29
2018-07-31T00:28:45.407Z,39.90
2018-07-31T00:29:45.540Z,40.09
2018-07-31T00:30:45.368Z,39.90
2018-07-31T00:31:47.228Z,40.09
2018-07-31T00:32:45.305Z,39.41
2018-07-31T00:33:44.093Z,39.70
2018-07-31T00:34:44.085Z,38.92
2018-07-31T00:35:44.078Z,39.80
2018-07-31T00:36:44.076Z,39.41
2018-07-31T00:37:44.080Z,39.41
2018-07-31T00:38:44.048Z,39.31
2018-07-31T00:39:44.718Z,39.22
2018-07-31T00:40:44.719Z,39.41
2018-07-31T00:41:45.022Z,39.41
2018-07-31T00:42:44.013Z,39.31
2018-07-31T00:43:44.018Z,39.41
2018-07-31T00:44:43.986Z,39.01
2018-07-31T00:45:43.967Z,39.51
2018-07-31T00:46:43.954Z,39.41
2018-07-31T00:47:43.943Z,39.01
2018-07-31T00:48:43.932Z,39.41
2018-07-31T00:49:43.959Z,39.22
2018-07-31T00:50:43.910Z,39.01
2018-07-31T00:51:43.902Z,39.41
2018-07-31T00:52:43.892Z,39.22
2018-07-31T00:53:44.731Z,39.80
2018-07-31T00:54:43.874Z,39.70
2018-07-31T00:55:43.902Z,39.80
2018-07-31T00:56:43.850Z,39.80
2018-07-31T00:57:43.850Z,39.51
2018-07-31T00:58:43.877Z,40.09
2018-07-31T00:59:43.820Z,39.51
2018-07-31T01:00:43.803Z,39.90
2018-07-31T01:01:43.822Z,40.19
2018-07-31T01:02:43.790Z,40.19
2018-07-31T01:03:43.777Z,40.09
2018-07-31T01:04:43.765Z,40.09
2018-07-31T01:05:43.762Z,40.09
2018-07-31T01:06:44.786Z,40.09
2018-07-31T01:07:43.733Z,39.31
2018-07-31T01:08:43.720Z,39.41
2018-07-31T01:09:43.708Z,40.09
2018-07-31T01:10:43.694Z,40.09
2018-07-31T01:11:43.686Z,39.41
2018-07-31T01:12:43.712Z,39.51
2018-07-31T01:13:43.665Z,40.19
2018-07-31T01:14:44.237Z,40.00
2018-07-31T01:15:43.642Z,39.41
2018-07-31T01:16:43.651Z,39.70
2018-07-31T01:17:43.859Z,39.41
2018-07-31T01:19:07.400Z,39.70
2018-07-31T01:19:43.759Z,39.22
2018-07-31T01:21:06.302Z,38.84
2018-07-31T01:21:44.591Z,39.35
2018-07-31T01:22:50.237Z,38.56
2018-07-31T01:23:50.306Z,39.47
2018-07-31T01:24:54.341Z,39.07
2018-07-31T01:25:43.542Z,38.88
2018-07-31T01:26:43.530Z,39.19
2018-07-31T01:27:47.225Z,38.80
2018-07-31T01:28:44.500Z,39.00
2018-07-31T01:29:43.518Z,39.11
2018-07-31T01:30:45.231Z,39.50
2018-07-31T01:31:44.309Z,39.50
2018-07-31T01:32:44.232Z,39.60
2018-07-31T01:33:44.446Z,39.21
2018-07-31T01:35:05.232Z,39.82
2018-07-31T01:35:44.233Z,39.32
2018-07-31T01:36:44.470Z,39.72
2018-07-31T01:37:43.405Z,39.72
2018-07-31T01:38:44.229Z,39.74
2018-07-31T01:39:43.382Z,39.54
2018-07-31T01:40:45.262Z,39.44
2018-07-31T02:30:28.789Z,41.35
2018-07-31T02:31:21.661Z,41.06
2018-07-31T02:32:21.656Z,41.35
2018-07-31T02:33:21.639Z,41.35
2018-07-31T02:35:33.083Z,40.76
2018-07-31T02:36:31.473Z,41.25
2018-07-31T02:37:32.077Z,40.66
2018-07-31T02:38:31.453Z,40.96
2018-07-31T02:39:31.444Z,40.47
2018-07-31T02:40:31.427Z,40.76
2018-07-31T02:41:34.080Z,40.56
2018-07-31T02:42:31.424Z,40.56
2018-07-31T02:43:32.126Z,40.98
2018-07-31T02:44:33.461Z,41.06
2018-07-31T02:45:34.125Z,40.47
2018-07-31T02:46:31.370Z,40.47
2018-07-31T02:47:34.078Z,40.58
2018-07-31T02:48:31.355Z,40.56
2018-07-31T02:49:31.333Z,40.86
2018-07-31T02:50:32.088Z,40.96
2018-07-31T02:51:32.306Z,40.86
2018-07-31T02:52:31.309Z,40.86
2018-07-31T02:56:06.124Z,40.98
2018-07-31T02:57:06.111Z,40.98
2018-07-31T02:58:11.079Z,40.98
2018-07-31T02:59:06.102Z,40.69
2018-07-31T03:00:06.086Z,40.58
2018-07-31T03:01:06.071Z,40.58
2018-07-31T03:02:06.086Z,40.78
2018-07-31T03:03:06.053Z,41.08
2018-07-31T03:04:06.040Z,40.69
2018-07-31T03:05:06.025Z,40.98
2018-07-31T03:06:06.008Z,40.39
2018-07-31T03:07:06.031Z,40.39
2018-07-31T03:08:07.025Z,40.78
2018-07-31T03:09:06.507Z,40.29
2018-07-31T03:10:06.022Z,41.38
2018-07-31T03:11:05.973Z,41.27
2018-07-31T03:12:05.982Z,40.88
2018-07-31T03:13:06.501Z,41.08
2018-07-31T03:14:06.495Z,41.08
2018-07-31T03:15:05.923Z,41.38
2018-07-31T03:16:06.005Z,40.88
2018-07-31T03:17:05.896Z,41.27
2018-07-31T03:18:05.883Z,41.08
2018-07-31T03:19:07.036Z,41.17
2018-07-31T03:20:05.899Z,41.47
2018-07-31T03:21:11.569Z,40.98
2018-07-31T03:22:05.839Z,41.47
2018-07-31T03:23:05.865Z,41.08
2018-07-31T03:24:06.493Z,41.77
2018-07-31T03:25:05.821Z,40.98
2018-07-31T03:26:28.820Z,41.38
2018-07-31T03:27:06.508Z,41.17
2018-07-31T03:28:05.827Z,40.98
2018-07-31T03:29:09.523Z,40.69
2018-07-31T03:30:05.752Z,40.98
2018-07-31T03:31:07.528Z,40.58
2018-07-31T03:32:07.502Z,40.29
2018-07-31T03:35:34.905Z,40.98
2018-07-31T03:36:35.414Z,41.38
2018-07-31T03:37:34.861Z,40.98
2018-07-31T03:38:34.849Z,41.39
2018-07-31T03:39:34.838Z,41.38
2018-07-31T03:40:34.841Z,40.98
2018-07-31T03:41:37.472Z,41.09
2018-07-31T03:42:34.803Z,40.98
2018-07-31T03:43:35.420Z,41.08
2018-07-31T03:44:34.783Z,40.48
2018-07-31T03:46:27.336Z,40.88
2018-07-31T03:47:26.780Z,40.90
2018-07-31T03:48:26.773Z,40.78
2018-07-31T03:49:26.793Z,40.39
2018-07-31T03:50:30.341Z,41.49
2018-07-31T03:51:26.734Z,41.49
2018-07-31T03:52:28.842Z,40.78
2018-07-31T03:53:26.709Z,41.17
2018-07-31T03:54:26.706Z,41.00
2018-07-31T03:55:26.726Z,41.00
2018-07-31T03:56:26.766Z,41.38
2018-07-31T03:57:28.356Z,40.51
2018-07-31T03:58:26.651Z,40.41
2018-07-31T03:59:27.333Z,41.09
2018-07-31T04:00:27.626Z,41.30
2018-07-31T04:01:26.622Z,41.20
2018-07-31T04:02:31.345Z,41.09
2018-07-31T04:03:27.341Z,41.49
2018-07-31T04:04:26.585Z,41.39
2018-07-31T04:05:27.388Z,41.27
2018-07-31T04:06:28.344Z,41.39
2018-07-31T04:07:27.858Z,41.59
2018-07-31T04:08:26.545Z,40.98
2018-07-31T04:10:35.381Z,40.88
2018-07-31T04:11:35.371Z,41.09
2018-07-31T04:12:35.393Z,40.98
2018-07-31T04:13:35.355Z,41.30
2018-07-31T04:14:35.989Z,40.88
2018-07-31T04:15:35.355Z,41.17
2018-07-31T04:16:37.014Z,41.38
2018-07-31T04:17:39.477Z,40.98
2018-07-31T04:18:35.299Z,41.17
2018-07-31T04:19:35.286Z,41.08
2018-07-31T04:20:35.279Z,41.08
2018-07-31T04:21:35.261Z,41.08
2018-07-31T04:22:36.059Z,40.98
2018-07-31T04:23:54.532Z,41.27
2018-07-31T04:24:35.383Z,41.47
2018-07-31T04:25:35.992Z,41.08
2018-07-31T04:26:35.989Z,41.08
2018-07-31T04:27:35.979Z,41.38
2018-07-31T04:28:40.982Z,41.08
2018-07-31T04:29:35.193Z,41.17
2018-07-31T09:26:15.492Z,14.80
2018-07-31T09:27:15.431Z,16.42
2018-07-31T09:28:15.420Z,18.26
2018-07-31T09:29:15.413Z,21.12
2018-07-31T09:30:16.079Z,22.45
2018-07-31T09:31:15.401Z,24.35
2018-07-31T09:32:16.048Z,26.04
2018-07-31T09:33:15.381Z,26.68
2018-07-31T09:34:15.417Z,27.20
2018-07-31T09:35:15.384Z,27.82
2018-07-31T09:36:16.051Z,29.01
2018-07-31T09:37:23.779Z,28.75
2018-07-31T09:38:16.059Z,29.86
2018-07-31T09:39:15.314Z,30.36
2018-07-31T09:40:15.316Z,30.77
2018-07-31T09:41:15.347Z,30.68
2018-07-31T09:42:15.701Z,31.67
2018-07-31T09:43:16.563Z,32.18
2018-07-31T09:44:15.298Z,32.09
2018-07-31T09:45:15.264Z,32.97
2018-07-31T09:46:15.256Z,33.38
2018-07-31T09:47:15.240Z,33.30
2018-07-31T09:48:16.059Z,33.40
2018-07-31T09:49:15.260Z,33.98
2018-07-31T09:50:15.257Z,34.38
2018-07-31T09:51:15.242Z,33.70
2018-07-31T09:52:15.183Z,34.78
2018-07-31T09:53:15.172Z,35.09
2018-07-31T09:54:15.172Z,35.28
2018-07-31T09:55:15.149Z,34.80
2018-07-31T09:56:15.344Z,34.91
2018-07-31T09:57:15.170Z,34.72
2018-07-31T09:58:15.120Z,35.01
2018-07-31T09:59:15.189Z,35.40
2018-07-31T10:00:16.056Z,34.81
2018-07-31T10:01:15.134Z,34.91
2018-07-31T10:02:15.462Z,35.01
2018-07-31T10:03:16.055Z,35.01
2018-07-31T10:04:15.062Z,34.91
2018-07-31T10:05:15.100Z,35.21
2018-07-31T10:06:15.089Z,35.32
2018-07-31T10:07:15.057Z,35.03
2018-07-31T10:08:15.068Z,35.11
2018-07-31T10:09:15.092Z,35.52
2018-07-31T10:10:14.988Z,34.83
2018-07-31T10:11:14.997Z,35.13
2018-07-31T10:12:15.133Z,35.13
2018-07-31T10:13:14.984Z,34.83
2018-07-31T10:14:14.957Z,35.13
2018-07-31T10:15:14.941Z,34.74
2018-07-31T10:16:14.925Z,34.83
2018-07-31T10:17:14.934Z,34.83
2018-07-31T10:18:15.097Z,35.32
2018-07-31T10:19:15.182Z,34.54
2018-07-31T10:20:15.701Z,34.83
2018-07-31T10:21:15.089Z,35.13
2018-07-31T10:22:15.055Z,35.32
2018-07-31T10:23:15.795Z,34.74
2018-07-31T10:24:15.864Z,35.32
2018-07-31T10:25:14.866Z,36.10
2018-07-31T10:26:14.841Z,37.08
2018-07-31T10:27:14.851Z,36.98
2018-07-31T10:28:14.811Z,36.30
2018-07-31T10:29:14.795Z,35.81
2018-07-31T10:30:14.822Z,35.71
2018-07-31T10:31:14.809Z,35.22
2018-07-31T10:32:14.770Z,34.91
2018-07-31T10:33:14.786Z,34.93
2018-07-31T10:34:14.736Z,35.01
2018-07-31T10:35:14.752Z,35.13
2018-07-31T10:36:14.734Z,34.74
2018-07-31T10:37:14.769Z,34.62
2018-07-31T10:38:14.731Z,34.72
2018-07-31T10:39:14.706Z,35.21
2018-07-31T10:40:14.696Z,34.62
2018-07-31T10:41:14.667Z,33.74
2018-07-31T10:42:14.673Z,33.54
2018-07-31T10:43:14.713Z,34.52
2018-07-31T10:44:14.651Z,34.52
2018-07-31T10:45:14.626Z,35.01
2018-07-31T10:46:14.616Z,34.91
2018-07-31T10:47:14.611Z,34.72
2018-07-31T10:48:14.587Z,35.01
2018-07-31T10:49:14.599Z,35.21
2018-07-31T10:50:14.600Z,35.30
2018-07-31T10:51:14.559Z,34.52
2018-07-31T10:52:14.616Z,35.11
2018-07-31T10:53:14.538Z,35.21
2018-07-31T10:54:14.517Z,35.60
2018-07-31T10:55:14.525Z,35.89
2018-07-31T10:56:14.498Z,35.69
2018-07-31T10:57:14.501Z,35.79
2018-07-31T10:58:14.610Z,36.18
2018-07-31T10:59:14.467Z,36.38
2018-07-31T11:00:14.482Z,36.18
2018-07-31T11:01:14.466Z,36.28
2018-07-31T11:02:14.446Z,35.89
2018-07-31T11:03:14.466Z,36.08
2018-07-31T11:04:14.475Z,35.69
2018-07-31T11:05:14.418Z,35.69
2018-07-31T11:06:14.469Z,36.57
2018-07-31T11:07:15.085Z,36.77
2018-07-31T11:08:14.426Z,36.96
2018-07-31T11:09:14.416Z,36.96
2018-07-31T11:10:14.375Z,37.06
2018-07-31T11:11:14.357Z,36.67
2018-07-31T11:12:14.363Z,36.96
2018-07-31T11:13:15.149Z,37.06
2018-07-31T11:14:14.311Z,36.87
2018-07-31T11:15:14.309Z,36.87
2018-07-31T11:16:14.288Z,37.16
2018-07-31T11:17:14.282Z,37.16
2018-07-31T11:18:14.671Z,36.96
2018-07-31T11:19:14.269Z,36.96
2018-07-31T11:20:14.252Z,36.96
2018-07-31T11:21:14.261Z,37.35
2018-07-31T11:22:14.239Z,37.06
2018-07-31T11:23:14.272Z,36.77
2018-07-31T11:24:14.278Z,36.47
2018-07-31T11:25:14.210Z,36.47
2018-07-31T11:26:14.186Z,37.06
2018-07-31T11:27:14.178Z,36.67
2018-07-31T11:28:14.172Z,36.57
2018-07-31T11:29:14.153Z,36.67
2018-07-31T11:30:14.159Z,36.47
2018-07-31T11:31:14.148Z,36.47
2018-07-31T11:32:14.124Z,36.28
2018-07-31T11:33:14.109Z,36.47
2018-07-31T11:34:15.094Z,36.57
2018-07-31T11:35:14.101Z,36.28
2018-07-31T11:36:15.097Z,35.60
2018-07-31T11:37:14.073Z,36.08
2018-07-31T11:38:14.066Z,35.79
2018-07-31T11:39:14.062Z,36.57
2018-07-31T11:40:14.037Z,36.18
2018-07-31T11:41:14.033Z,36.18
2018-07-31T11:42:14.115Z,36.18
2018-07-31T11:43:14.021Z,36.38
2018-07-31T11:44:14.018Z,35.99
2018-07-31T11:45:13.980Z,36.28
2018-07-31T11:46:13.983Z,36.47
2018-07-31T11:47:13.959Z,36.28
2018-07-31T11:48:13.957Z,35.89
2018-07-31T11:49:13.951Z,35.50
2018-07-31T11:50:13.981Z,35.60
2018-07-31T11:51:13.920Z,35.89
2018-07-31T11:52:13.911Z,35.79
2018-07-31T11:53:13.898Z,35.99
2018-07-31T11:54:13.888Z,36.38
2018-07-31T11:55:13.893Z,35.89
2018-07-31T11:56:13.895Z,36.18
2018-07-31T11:57:13.860Z,36.18
2018-07-31T11:58:13.852Z,35.69
2018-07-31T11:59:13.859Z,35.69
2018-07-31T12:00:14.974Z,35.89
2018-07-31T12:01:14.854Z,35.89
2018-07-31T12:02:13.801Z,35.69
2018-07-31T12:03:13.791Z,35.89
2018-07-31T12:04:13.849Z,35.99
2018-07-31T12:05:13.777Z,36.08
2018-07-31T12:06:13.760Z,35.69
2018-07-31T12:07:13.769Z,35.69
2018-07-31T12:08:13.773Z,36.18
2018-07-31T12:09:13.747Z,36.18
2018-07-31T12:10:13.751Z,36.28
2018-07-31T12:11:13.719Z,36.08
2018-07-31T12:12:13.697Z,36.08
2018-07-31T12:13:14.013Z,35.89
2018-07-31T12:14:13.709Z,35.69
2018-07-31T12:15:13.666Z,35.69
2018-07-31T12:16:13.667Z,35.89
2018-07-31T12:17:13.639Z,35.89
2018-07-31T12:18:13.636Z,35.99
2018-07-31T12:19:13.648Z,35.40
2018-07-31T12:20:13.627Z,35.99
2018-07-31T12:21:13.623Z,35.89
2018-07-31T12:22:14.660Z,35.69
2018-07-31T12:23:13.588Z,35.79
2018-07-31T12:24:13.577Z,35.69
2018-07-31T12:25:13.585Z,35.60
2018-07-31T12:26:19.163Z,35.89
2018-07-31T12:27:13.548Z,35.30
2018-07-31T12:28:13.527Z,35.89
2018-07-31T12:29:13.514Z,35.21
2018-07-31T12:30:13.508Z,35.89
2018-07-31T12:31:13.516Z,35.50
2018-07-31T12:32:14.096Z,35.30
2018-07-31T12:33:13.617Z,35.69
2018-07-31T12:34:13.460Z,35.21
2018-07-31T12:35:13.459Z,35.69
2018-07-31T12:36:13.449Z,35.79
2018-07-31T12:37:13.573Z,35.21
2018-07-31T12:38:13.486Z,35.60
2018-07-31T12:39:13.488Z,35.60
2018-07-31T12:40:13.404Z,35.50
2018-07-31T12:41:13.471Z,35.60
2018-07-31T12:42:13.398Z,35.60
2018-07-31T12:43:13.431Z,35.60
2018-07-31T12:44:13.392Z,35.21
2018-07-31T12:45:13.370Z,35.60
2018-07-31T12:46:13.360Z,35.30
2018-07-31T12:47:13.337Z,35.69
2018-07-31T12:48:13.333Z,35.71
2018-07-31T12:49:13.330Z,35.69
2018-07-31T12:50:13.452Z,35.01
2018-07-31T12:51:13.280Z,35.69
2018-07-31T12:52:13.273Z,35.60
2018-07-31T12:53:13.276Z,35.30
2018-07-31T12:54:13.286Z,35.40
2018-07-31T12:55:13.257Z,35.71
2018-07-31T12:56:13.260Z,35.30
2018-07-31T12:57:13.236Z,35.21
2018-07-31T12:58:13.218Z,35.21
2018-07-31T12:59:14.132Z,35.69
2018-07-31T13:00:13.194Z,35.30
2018-07-31T13:01:13.180Z,35.89
2018-07-31T13:02:13.206Z,35.30
2018-07-31T13:03:13.155Z,35.52
2018-07-31T13:04:13.140Z,34.93
2018-07-31T13:05:13.133Z,35.50
2018-07-31T13:06:13.120Z,35.50
2018-07-31T13:07:13.110Z,35.69
2018-07-31T13:08:13.136Z,35.30
2018-07-31T13:09:13.087Z,35.21
2018-07-31T13:10:13.085Z,35.79
2018-07-31T13:11:13.075Z,35.42
2018-07-31T13:12:13.070Z,34.91
2018-07-31T13:13:14.111Z,35.42
2018-07-31T13:14:13.047Z,35.11
2018-07-31T13:15:13.025Z,35.32
2018-07-31T13:16:13.030Z,35.32
2018-07-31T13:17:13.034Z,35.21
2018-07-31T13:18:12.996Z,35.13
2018-07-31T13:19:13.010Z,35.11
2018-07-31T13:20:12.973Z,35.01
2018-07-31T13:21:12.963Z,35.61
2018-07-31T13:22:12.952Z,34.44
2018-07-31T13:23:12.941Z,34.42
2018-07-31T13:24:13.693Z,34.52
2018-07-31T13:25:12.968Z,34.24
2018-07-31T13:26:13.605Z,35.81
2018-07-31T13:27:12.901Z,34.42
2018-07-31T13:28:12.887Z,35.13
2018-07-31T13:29:12.877Z,35.01
2018-07-31T13:30:12.869Z,34.62
2018-07-31T13:31:12.891Z,35.03
2018-07-31T13:32:12.861Z,35.03
2018-07-31T13:33:12.857Z,35.30
2018-07-31T13:34:12.823Z,34.42
2018-07-31T13:35:12.815Z,35.71
2018-07-31T13:36:12.824Z,34.93
2018-07-31T13:37:12.854Z,35.42
2018-07-31T13:38:12.786Z,34.23
2018-07-31T13:39:12.797Z,35.71
2018-07-31T13:40:12.763Z,34.42
2018-07-31T13:41:15.576Z,35.42
2018-07-31T13:42:12.738Z,34.91
2018-07-31T13:43:12.738Z,34.44
2018-07-31T13:44:12.826Z,35.40
2018-07-31T13:45:12.711Z,34.44
2018-07-31T13:46:12.697Z,34.54
2018-07-31T13:47:12.693Z,34.83
2018-07-31T13:48:12.758Z,35.13
2018-07-31T13:49:12.669Z,34.93
2018-07-31T13:50:12.652Z,35.11
2018-07-31T13:51:12.675Z,35.21
2018-07-31T13:52:12.637Z,34.74
2018-07-31T13:53:14.808Z,35.03
2018-07-31T13:54:12.713Z,35.81
2018-07-31T13:55:14.229Z,35.61
2018-07-31T13:56:12.654Z,35.13
2018-07-31T13:57:12.709Z,35.61
2018-07-31T13:58:15.109Z,35.11
2018-07-31T13:59:12.557Z,35.11
2018-07-31T14:00:12.563Z,34.74
2018-07-31T14:01:12.536Z,35.22
2018-07-31T14:02:12.697Z,34.52
2018-07-31T14:03:12.520Z,34.93
2018-07-31T14:04:12.576Z,35.13
2018-07-31T14:05:12.495Z,35.11
2018-07-31T14:06:12.495Z,34.91
2018-07-31T14:07:12.476Z,34.81
2018-07-31T14:08:12.473Z,35.03
2018-07-31T14:09:12.453Z,35.32
2018-07-31T14:10:12.449Z,34.93
2018-07-31T14:11:12.464Z,34.93
2018-07-31T14:12:12.426Z,34.93
2018-07-31T14:13:12.421Z,34.91
2018-07-31T14:14:12.398Z,34.93
2018-07-31T14:15:12.389Z,35.01
2018-07-31T14:16:12.377Z,35.13
2018-07-31T14:17:12.403Z,35.03
2018-07-31T14:18:12.405Z,35.01
2018-07-31T14:19:12.356Z,35.03
2018-07-31T14:20:12.337Z,35.03
2018-07-31T14:21:12.328Z,35.03
2018-07-31T14:22:12.321Z,35.03
2018-07-31T14:23:12.346Z,35.03
2018-07-31T14:24:12.319Z,35.03
2018-07-31T14:25:12.282Z,35.03
2018-07-31T14:26:12.273Z,35.32
2018-07-31T14:27:12.276Z,35.13
2018-07-31T14:28:12.256Z,35.32
2018-07-31T14:29:12.269Z,35.22
2018-07-31T14:30:12.270Z,35.03
2018-07-31T14:31:12.227Z,35.22
2018-07-31T14:32:12.211Z,35.32
2018-07-31T14:33:12.205Z,35.32
2018-07-31T14:34:12.202Z,35.13
2018-07-31T14:35:12.217Z,35.01
2018-07-31T14:36:12.173Z,35.03
2018-07-31T14:37:12.157Z,35.03
2018-07-31T14:38:12.146Z,34.93
2018-07-31T14:39:12.137Z,34.83
2018-07-31T14:40:12.133Z,35.13
2018-07-31T14:41:12.127Z,35.13
2018-07-31T14:42:12.111Z,35.22
2018-07-31T14:43:12.090Z,35.03
2018-07-31T14:44:12.096Z,34.52
2018-07-31T14:45:12.083Z,34.54
2018-07-31T14:46:12.074Z,35.03
2018-07-31T14:47:12.050Z,34.64
2018-07-31T14:48:12.065Z,34.83
2018-07-31T14:49:12.030Z,34.83
2018-07-31T14:50:12.020Z,35.60
2018-07-31T14:51:12.011Z,35.42
2018-07-31T14:52:12.015Z,34.64
2018-07-31T14:53:11.994Z,35.03
2018-07-31T14:54:12.024Z,35.32
2018-07-31T14:55:11.970Z,35.32
2018-07-31T14:56:11.951Z,34.74
2018-07-31T14:57:11.953Z,34.74
2018-07-31T14:58:11.953Z,35.30
2018-07-31T14:59:11.928Z,34.91
2018-07-31T15:00:11.912Z,34.72
2018-07-31T15:01:11.900Z,34.72
2018-07-31T15:02:11.906Z,35.13
2018-07-31T15:03:11.915Z,35.13
2018-07-31T15:04:11.878Z,35.11
2018-07-31T15:05:11.877Z,35.32
2018-07-31T15:06:11.848Z,34.64
2018-07-31T15:07:12.362Z,35.03
2018-07-31T15:08:11.844Z,34.83
2018-07-31T15:09:11.848Z,34.93
2018-07-31T15:10:11.823Z,35.13
2018-07-31T15:11:11.922Z,34.34
2018-07-31T15:12:11.789Z,34.93
2018-07-31T15:13:11.809Z,34.83
2018-07-31T15:14:11.781Z,35.03
2018-07-31T15:15:11.762Z,35.32
2018-07-31T15:16:11.750Z,34.54
2018-07-31T15:17:11.738Z,35.22
2018-07-31T15:18:11.744Z,35.22
2018-07-31T15:19:11.895Z,35.32
2018-07-31T15:20:11.723Z,34.44
2018-07-31T15:21:11.819Z,35.32
2018-07-31T15:22:11.686Z,34.54
2018-07-31T15:23:11.670Z,35.32
2018-07-31T15:24:11.679Z,35.03
2018-07-31T15:25:11.693Z,35.13
2018-07-31T15:26:12.659Z,34.93
2018-07-31T15:27:11.634Z,35.32
2018-07-31T15:28:11.796Z,35.03
2018-07-31T15:29:11.607Z,35.22
2018-07-31T15:30:11.597Z,34.44
2018-07-31T15:31:11.623Z,34.44
2018-07-31T15:32:11.573Z,34.93
2018-07-31T15:33:11.572Z,35.03
2018-07-31T15:34:11.562Z,34.54
2018-07-31T15:35:11.564Z,34.74
2018-07-31T15:36:11.534Z,35.71
2018-07-31T15:37:11.555Z,34.34
2018-07-31T15:38:11.512Z,34.64
2018-07-31T15:39:11.534Z,34.34
2018-07-31T15:40:11.496Z,34.54
2018-07-31T15:41:11.501Z,35.13
2018-07-31T15:42:11.474Z,34.93
2018-07-31T15:43:11.474Z,35.03
2018-07-31T15:44:11.442Z,34.93
2018-07-31T15:45:11.444Z,35.13
2018-07-31T15:46:11.476Z,34.93
2018-07-31T15:47:11.418Z,35.03
2018-07-31T15:48:12.264Z,35.03
2018-07-31T15:49:11.409Z,35.03
2018-07-31T15:50:11.382Z,35.03
2018-07-31T15:51:11.409Z,35.32
2018-07-31T15:52:11.401Z,34.93
2018-07-31T15:53:11.363Z,34.93
2018-07-31T15:54:11.343Z,35.03
2018-07-31T15:55:11.345Z,34.93
2018-07-31T15:56:11.328Z,35.22
2018-07-31T15:57:11.308Z,35.03
2018-07-31T15:58:11.359Z,35.22
2018-07-31T15:59:12.155Z,35.13
2018-07-31T16:00:11.287Z,35.13
2018-07-31T16:01:11.275Z,35.13
2018-07-31T16:02:11.255Z,34.83
2018-07-31T16:03:11.257Z,35.13
2018-07-31T16:04:11.270Z,35.13
2018-07-31T16:05:11.226Z,35.13
2018-07-31T16:06:11.218Z,35.03
2018-07-31T16:07:11.202Z,34.83
2018-07-31T16:08:11.195Z,34.83
2018-07-31T16:09:11.180Z,34.54
2018-07-31T16:10:11.280Z,34.64
2018-07-31T16:11:12.178Z,34.83
2018-07-31T16:12:12.255Z,34.93
2018-07-31T16:13:11.136Z,34.93
2018-07-31T16:14:11.137Z,35.32
2018-07-31T16:15:11.117Z,35.03
2018-07-31T16:16:11.156Z,34.83
2018-07-31T16:17:11.104Z,35.13
2018-07-31T16:18:11.093Z,35.22
2018-07-31T16:19:11.071Z,34.74
2018-07-31T16:20:11.076Z,34.64
2018-07-31T16:21:11.059Z,35.03
2018-07-31T16:22:11.061Z,34.83
2018-07-31T16:23:11.080Z,34.83
2018-07-31T16:24:11.029Z,34.93
2018-07-31T16:25:11.012Z,34.93
2018-07-31T16:26:11.007Z,35.03
2018-07-31T16:27:11.015Z,34.83
2018-07-31T16:28:10.985Z,35.03
2018-07-31T16:29:10.974Z,34.44
2018-07-31T16:30:10.972Z,34.54
2018-07-31T16:31:10.952Z,33.75
2018-07-31T16:32:10.963Z,33.75
2018-07-31T16:33:10.959Z,33.65
2018-07-31T16:34:10.930Z,34.93
2018-07-31T16:35:10.910Z,33.65
2018-07-31T16:36:10.901Z,34.14
2018-07-31T16:37:10.926Z,33.95
2018-07-31T16:38:10.875Z,33.75
2018-07-31T16:39:10.904Z,33.85
2018-07-31T16:40:10.866Z,34.14
2018-07-31T16:41:10.846Z,34.24
2018-07-31T16:42:10.833Z,34.14
2018-07-31T16:43:10.821Z,33.65
2018-07-31T16:44:10.812Z,34.24
2018-07-31T16:45:10.869Z,33.36
2018-07-31T16:46:11.654Z,34.54
2018-07-31T16:47:11.663Z,34.93
2018-07-31T16:48:10.780Z,34.44
2018-07-31T16:49:10.799Z,34.54
2018-07-31T16:50:10.767Z,34.54
2018-07-31T16:51:10.747Z,34.54
2018-07-31T16:52:10.724Z,35.03
2018-07-31T16:53:11.658Z,35.32
2018-07-31T16:54:10.718Z,35.32
2018-07-31T16:55:10.701Z,35.03
2018-07-31T16:56:10.713Z,35.32
2018-07-31T16:57:10.675Z,34.93
2018-07-31T16:58:10.659Z,34.74
2018-07-31T16:59:11.650Z,34.83
2018-07-31T17:00:10.656Z,35.32
2018-07-31T17:01:10.639Z,34.93
2018-07-31T17:02:10.653Z,34.84
2018-07-31T17:03:10.613Z,35.22
2018-07-31T17:04:10.599Z,35.03
2018-07-31T17:05:10.594Z,35.52
2018-07-31T17:06:11.608Z,35.22
2018-07-31T17:07:10.565Z,35.22
2018-07-31T17:08:10.611Z,35.03
2018-07-31T17:09:10.546Z,35.13
2018-07-31T17:10:10.532Z,35.22
2018-07-31T17:11:10.570Z,35.03
2018-07-31T17:12:10.519Z,34.83
2018-07-31T17:13:10.503Z,34.93
2018-07-31T17:14:10.523Z,34.83
2018-07-31T17:15:10.486Z,34.83
2018-07-31T17:16:10.470Z,34.64
2018-07-31T17:17:10.475Z,35.42
2018-07-31T17:18:10.456Z,34.83
2018-07-31T17:19:10.437Z,34.54
2018-07-31T17:20:11.170Z,34.83
2018-07-31T17:21:10.430Z,34.83
2018-07-31T17:22:10.407Z,34.93
2018-07-31T17:23:14.202Z,34.74
2018-07-31T17:24:10.382Z,34.93
2018-07-31T17:25:11.282Z,34.74
2018-07-31T17:26:10.566Z,35.42
2018-07-31T17:27:10.374Z,34.93
2018-07-31T17:28:10.352Z,35.13
2018-07-31T17:29:10.350Z,34.83
2018-07-31T17:30:10.416Z,35.03
2018-07-31T17:31:10.320Z,35.30
2018-07-31T17:32:10.340Z,35.21
2018-07-31T17:33:10.299Z,34.91
2018-07-31T17:34:10.285Z,35.21
2018-07-31T17:35:10.303Z,35.01
2018-07-31T17:36:10.259Z,34.91
2018-07-31T17:37:10.259Z,35.11
2018-07-31T17:38:10.271Z,35.01
2018-07-31T17:39:10.225Z,34.81
2018-07-31T17:40:10.227Z,34.91
2018-07-31T17:41:11.204Z,34.72
2018-07-31T17:42:10.208Z,34.64
2018-07-31T17:43:10.184Z,35.22
2018-07-31T17:44:10.263Z,35.11
2018-07-31T17:45:10.213Z,35.13
2018-07-31T17:46:10.184Z,35.40
2018-07-31T17:47:10.185Z,36.00
2018-07-31T17:48:10.733Z,35.91
2018-07-31T17:49:11.136Z,35.71
2018-07-31T17:50:10.221Z,35.81
2018-07-31T17:51:10.118Z,35.03
2018-07-31T17:52:11.184Z,35.32
2018-07-31T17:53:10.214Z,35.03
2018-07-31T17:54:10.066Z,35.71
2018-07-31T17:55:10.146Z,35.71
2018-07-31T17:56:10.055Z,35.71
2018-07-31T17:57:10.095Z,35.03
2018-07-31T17:58:11.116Z,35.22
2018-07-31T17:59:10.013Z,35.71
2018-07-31T18:00:10.105Z,35.32
2018-07-31T18:01:09.999Z,35.42
2018-07-31T18:02:11.823Z,35.22
2018-07-31T18:03:10.673Z,35.32
2018-07-31T18:04:09.980Z,35.30
2018-07-31T18:05:09.954Z,35.13
2018-07-31T18:06:09.954Z,34.54
2018-07-31T18:07:09.965Z,35.13
2018-07-31T18:08:09.947Z,34.42
2018-07-31T18:09:09.918Z,34.23
2018-07-31T18:10:10.724Z,34.44
2018-07-31T18:11:09.892Z,34.52
2018-07-31T18:12:09.972Z,34.23
2018-07-31T18:13:09.901Z,34.62
2018-07-31T18:14:09.941Z,34.54
2018-07-31T18:15:09.843Z,35.40
2018-07-31T18:16:09.881Z,34.34
2018-07-31T18:17:09.824Z,35.52
2018-07-31T18:18:09.872Z,34.44
2018-07-31T18:19:09.840Z,35.32
2018-07-31T18:20:09.813Z,35.03
2018-07-31T18:21:09.813Z,35.13
2018-07-31T18:22:10.768Z,34.44
2018-07-31T18:23:09.770Z,35.91
2018-07-31T18:24:10.717Z,35.03
2018-07-31T18:25:09.775Z,35.52
2018-07-31T18:26:09.730Z,35.03
2018-07-31T18:27:09.807Z,34.34
2018-07-31T18:28:09.749Z,35.61
2018-07-31T18:29:09.752Z,35.22
2018-07-31T18:30:09.687Z,35.13
2018-07-31T18:31:09.768Z,34.93
2018-07-31T18:32:09.680Z,34.34
2018-07-31T18:33:09.665Z,35.13
2018-07-31T18:34:09.649Z,34.93
2018-07-31T18:35:09.631Z,34.64
2018-07-31T18:36:09.652Z,34.54
2018-07-31T18:37:09.639Z,34.93
2018-07-31T18:38:10.177Z,34.93
2018-07-31T18:39:10.590Z,34.44
2018-07-31T18:40:10.178Z,34.83
2018-07-31T18:41:09.596Z,35.81
2018-07-31T18:42:09.631Z,34.93
2018-07-31T18:43:09.614Z,35.32
2018-07-31T18:44:09.598Z,35.03
2018-07-31T18:45:10.204Z,35.13